LIMC/MXP METAR and TAF weather

Enter ICAO airport designator
Station Type Date Time Source
LIMC METAR 2021/09/16 22:20 UTC NOAA

LIMC 162220Z 01004KT CAVOK 18/18 Q1014 NOSIG


Station Type Date Time Source
LIMC Decoded METAR 2021/09/16 22:20 UTC NOAA

Milano / Malpensa, Italy (LIMC) 45-37N 008-44E 211M
Sep 16, 2021 - 06:20 PM EDT / 2021.09.16 2220 UTC
Wind: from the N (010 degrees) at 5 MPH (4 KT):0
Visibility: greater than 7 mile(s):0
Temperature: 64 F (18 C)
Dew Point: 64 F (18 C)
Relative Humidity: 100%
Pressure (altimeter): 29.94 in. Hg (1014 hPa)
ob: LIMC 162220Z 01004KT CAVOK 18/18 Q1014 NOSIG
cycle: 22

Station Type Date Time Source
LIMC TAF 2021/09/16 18:21 UTC NOAA

TAF LIMC 161700Z 1618/1724 VRB05KT 9999 SCT020 BKN040
TEMPO 1618/1623 4000 TSRA
TEMPO 1700/1705 3000 BR
TEMPO 1718/1724 4000 TSRA

Example: see airport list